sensor_id;sensor_type;location;lat;lon;timestamp;P1;durP1;ratioP1;P2;durP2;ratioP2
21905;SDS011;11117;48.644;9.006;2023-04-26T00:01:44;15.63;;;8.20;;
21905;SDS011;11117;48.644;9.006;2023-04-26T00:04:10;12.80;;;8.63;;
21905;SDS011;11117;48.644;9.006;2023-04-26T00:06:35;14.87;;;8.53;;
21905;SDS011;11117;48.644;9.006;2023-04-26T00:09:01;16.73;;;8.63;;
21905;SDS011;11117;48.644;9.006;2023-04-26T00:11:27;17.90;;;8.20;;
21905;SDS011;11117;48.644;9.006;2023-04-26T00:13:52;13.60;;;7.90;;
21905;SDS011;11117;48.644;9.006;2023-04-26T00:16:18;15.63;;;8.00;;
21905;SDS011;11117;48.644;9.006;2023-04-26T00:18:43;14.57;;;7.40;;
21905;SDS011;11117;48.644;9.006;2023-04-26T00:21:09;14.63;;;7.83;;
21905;SDS011;11117;48.644;9.006;2023-04-26T00:23:34;16.57;;;8.20;;
21905;SDS011;11117;48.644;9.006;2023-04-26T00:26:00;15.40;;;8.17;;
21905;SDS011;11117;48.644;9.006;2023-04-26T00:28:25;13.50;;;7.47;;
21905;SDS011;11117;48.644;9.006;2023-04-26T00:30:52;13.63;;;7.37;;
21905;SDS011;11117;48.644;9.006;2023-04-26T00:33:18;13.77;;;7.43;;
21905;SDS011;11117;48.644;9.006;2023-04-26T00:35:43;13.57;;;7.70;;
21905;SDS011;11117;48.644;9.006;2023-04-26T00:38:09;18.20;;;7.23;;
21905;SDS011;11117;48.644;9.006;2023-04-26T00:40:34;13.50;;;7.80;;
21905;SDS011;11117;48.644;9.006;2023-04-26T00:43:00;15.83;;;7.53;;
21905;SDS011;11117;48.644;9.006;2023-04-26T00:45:27;13.30;;;7.40;;
21905;SDS011;11117;48.644;9.006;2023-04-26T00:47:52;13.73;;;7.33;;
21905;SDS011;11117;48.644;9.006;2023-04-26T00:50:18;13.57;;;7.77;;
21905;SDS011;11117;48.644;9.006;2023-04-26T00:52:44;19.83;;;8.63;;
21905;SDS011;11117;48.644;9.006;2023-04-26T00:55:11;14.10;;;8.00;;
21905;SDS011;11117;48.644;9.006;2023-04-26T00:57:38;16.27;;;8.17;;
21905;SDS011;11117;48.644;9.006;2023-04-26T01:00:04;16.93;;;8.53;;
21905;SDS011;11117;48.644;9.006;2023-04-26T01:02:30;19.67;;;9.03;;
21905;SDS011;11117;48.644;9.006;2023-04-26T01:04:55;17.27;;;8.77;;
21905;SDS011;11117;48.644;9.006;2023-04-26T01:07:21;14.57;;;8.30;;
21905;SDS011;11117;48.644;9.006;2023-04-26T01:09:47;13.80;;;8.50;;
21905;SDS011;11117;48.644;9.006;2023-04-26T01:12:13;15.33;;;8.60;;
21905;SDS011;11117;48.644;9.006;2023-04-26T01:14:40;17.53;;;8.27;;
21905;SDS011;11117;48.644;9.006;2023-04-26T01:17:05;14.50;;;7.87;;
21905;SDS011;11117;48.644;9.006;2023-04-26T01:19:31;15.83;;;8.20;;
21905;SDS011;11117;48.644;9.006;2023-04-26T01:21:57;15.33;;;7.93;;
21905;SDS011;11117;48.644;9.006;2023-04-26T01:24:22;12.57;;;7.87;;
21905;SDS011;11117;48.644;9.006;2023-04-26T01:26:48;15.50;;;7.47;;
21905;SDS011;11117;48.644;9.006;2023-04-26T01:29:14;15.73;;;7.90;;
21905;SDS011;11117;48.644;9.006;2023-04-26T01:31:41;13.67;;;7.53;;
21905;SDS011;11117;48.644;9.006;2023-04-26T01:34:07;16.83;;;7.27;;
21905;SDS011;11117;48.644;9.006;2023-04-26T01:36:33;12.37;;;7.63;;
21905;SDS011;11117;48.644;9.006;2023-04-26T01:38:58;13.27;;;7.40;;
21905;SDS011;11117;48.644;9.006;2023-04-26T01:41:24;19.97;;;7.90;;
21905;SDS011;11117;48.644;9.006;2023-04-26T01:43:49;16.20;;;7.97;;
21905;SDS011;11117;48.644;9.006;2023-04-26T01:46:15;16.37;;;8.23;;
21905;SDS011;11117;48.644;9.006;2023-04-26T01:48:40;17.20;;;7.90;;
21905;SDS011;11117;48.644;9.006;2023-04-26T01:51:06;18.30;;;8.50;;
21905;SDS011;11117;48.644;9.006;2023-04-26T01:53:32;11.67;;;7.77;;
21905;SDS011;11117;48.644;9.006;2023-04-26T01:56:01;16.23;;;8.10;;
21905;SDS011;11117;48.644;9.006;2023-04-26T01:58:27;17.20;;;7.70;;
21905;SDS011;11117;48.644;9.006;2023-04-26T02:00:53;16.07;;;8.37;;
21905;SDS011;11117;48.644;9.006;2023-04-26T02:03:19;19.43;;;8.47;;
21905;SDS011;11117;48.644;9.006;2023-04-26T02:05:44;14.50;;;8.77;;
21905;SDS011;11117;48.644;9.006;2023-04-26T02:08:10;18.23;;;8.87;;
21905;SDS011;11117;48.644;9.006;2023-04-26T02:10:35;14.47;;;8.03;;
21905;SDS011;11117;48.644;9.006;2023-04-26T02:13:01;21.20;;;7.90;;
21905;SDS011;11117;48.644;9.006;2023-04-26T02:15:26;13.93;;;7.90;;
21905;SDS011;11117;48.644;9.006;2023-04-26T02:17:52;23.97;;;8.33;;
21905;SDS011;11117;48.644;9.006;2023-04-26T02:20:18;14.57;;;7.83;;
21905;SDS011;11117;48.644;9.006;2023-04-26T02:22:43;15.93;;;8.27;;
21905;SDS011;11117;48.644;9.006;2023-04-26T02:25:09;16.17;;;8.27;;
21905;SDS011;11117;48.644;9.006;2023-04-26T02:27:34;17.37;;;8.23;;
21905;SDS011;11117;48.644;9.006;2023-04-26T02:30:00;14.00;;;8.23;;
21905;SDS011;11117;48.644;9.006;2023-04-26T02:32:25;15.17;;;8.60;;
21905;SDS011;11117;48.644;9.006;2023-04-26T02:34:51;17.10;;;8.80;;
21905;SDS011;11117;48.644;9.006;2023-04-26T02:37:16;15.03;;;8.13;;
21905;SDS011;11117;48.644;9.006;2023-04-26T02:39:48;16.63;;;7.97;;
21905;SDS011;11117;48.644;9.006;2023-04-26T02:42:14;16.27;;;8.33;;
21905;SDS011;11117;48.644;9.006;2023-04-26T02:44:40;16.53;;;7.93;;
21905;SDS011;11117;48.644;9.006;2023-04-26T02:47:05;19.30;;;8.70;;
21905;SDS011;11117;48.644;9.006;2023-04-26T02:49:31;19.60;;;8.47;;
21905;SDS011;11117;48.644;9.006;2023-04-26T02:51:56;16.03;;;8.20;;
21905;SDS011;11117;48.644;9.006;2023-04-26T02:54:22;16.73;;;8.23;;
21905;SDS011;11117;48.644;9.006;2023-04-26T02:56:48;18.40;;;8.17;;
21905;SDS011;11117;48.644;9.006;2023-04-26T02:59:13;21.83;;;8.60;;
21905;SDS011;11117;48.644;9.006;2023-04-26T03:01:39;17.80;;;7.90;;
21905;SDS011;11117;48.644;9.006;2023-04-26T03:04:05;17.47;;;8.30;;
21905;SDS011;11117;48.644;9.006;2023-04-26T03:06:31;18.73;;;8.73;;
21905;SDS011;11117;48.644;9.006;2023-04-26T03:08:56;15.13;;;8.83;;
21905;SDS011;11117;48.644;9.006;2023-04-26T03:11:22;18.80;;;9.27;;
21905;SDS011;11117;48.644;9.006;2023-04-26T03:13:47;15.07;;;9.00;;
21905;SDS011;11117;48.644;9.006;2023-04-26T03:16:13;21.10;;;8.80;;
21905;SDS011;11117;48.644;9.006;2023-04-26T03:18:38;17.23;;;8.90;;
21905;SDS011;11117;48.644;9.006;2023-04-26T03:21:04;15.83;;;9.03;;
21905;SDS011;11117;48.644;9.006;2023-04-26T03:23:29;14.40;;;8.33;;
21905;SDS011;11117;48.644;9.006;2023-04-26T03:25:55;25.93;;;9.30;;
21905;SDS011;11117;48.644;9.006;2023-04-26T03:28:21;15.77;;;8.37;;
21905;SDS011;11117;48.644;9.006;2023-04-26T03:30:46;16.93;;;9.27;;
21905;SDS011;11117;48.644;9.006;2023-04-26T03:33:12;17.77;;;9.13;;
21905;SDS011;11117;48.644;9.006;2023-04-26T03:35:37;19.00;;;8.80;;
21905;SDS011;11117;48.644;9.006;2023-04-26T03:38:03;17.27;;;8.83;;
21905;SDS011;11117;48.644;9.006;2023-04-26T03:40:28;21.33;;;9.27;;
21905;SDS011;11117;48.644;9.006;2023-04-26T03:42:54;15.03;;;9.20;;
21905;SDS011;11117;48.644;9.006;2023-04-26T03:45:19;18.97;;;9.67;;
21905;SDS011;11117;48.644;9.006;2023-04-26T03:47:45;18.67;;;9.17;;
21905;SDS011;11117;48.644;9.006;2023-04-26T03:50:10;17.20;;;10.40;;
21905;SDS011;11117;48.644;9.006;2023-04-26T03:52:36;21.03;;;10.00;;
21905;SDS011;11117;48.644;9.006;2023-04-26T03:55:01;23.20;;;10.63;;
21905;SDS011;11117;48.644;9.006;2023-04-26T03:57:27;21.47;;;10.00;;
21905;SDS011;11117;48.644;9.006;2023-04-26T03:59:53;22.43;;;11.57;;
21905;SDS011;11117;48.644;9.006;2023-04-26T04:02:18;19.70;;;11.00;;
21905;SDS011;11117;48.644;9.006;2023-04-26T04:04:45;21.53;;;11.43;;
21905;SDS011;11117;48.644;9.006;2023-04-26T04:07:11;21.50;;;10.90;;
21905;SDS011;11117;48.644;9.006;2023-04-26T04:09:36;22.83;;;10.63;;
21905;SDS011;11117;48.644;9.006;2023-04-26T04:12:02;27.83;;;11.30;;
21905;SDS011;11117;48.644;9.006;2023-04-26T04:14:28;21.17;;;11.47;;
21905;SDS011;11117;48.644;9.006;2023-04-26T04:16:53;25.47;;;11.40;;
21905;SDS011;11117;48.644;9.006;2023-04-26T04:19:19;22.57;;;10.70;;
21905;SDS011;11117;48.644;9.006;2023-04-26T04:21:44;27.50;;;12.03;;
21905;SDS011;11117;48.644;9.006;2023-04-26T04:24:10;22.27;;;11.40;;
21905;SDS011;11117;48.644;9.006;2023-04-26T04:26:35;22.10;;;11.97;;
21905;SDS011;11117;48.644;9.006;2023-04-26T04:29:01;22.47;;;10.03;;
21905;SDS011;11117;48.644;9.006;2023-04-26T04:31:26;21.00;;;10.40;;
21905;SDS011;11117;48.644;9.006;2023-04-26T04:33:52;23.93;;;9.70;;
21905;SDS011;11117;48.644;9.006;2023-04-26T04:36:18;17.63;;;9.93;;
21905;SDS011;11117;48.644;9.006;2023-04-26T04:38:44;20.80;;;11.23;;
21905;SDS011;11117;48.644;9.006;2023-04-26T04:41:09;23.73;;;11.20;;
21905;SDS011;11117;48.644;9.006;2023-04-26T04:43:35;27.83;;;12.30;;
21905;SDS011;11117;48.644;9.006;2023-04-26T04:46:00;23.30;;;11.77;;
21905;SDS011;11117;48.644;9.006;2023-04-26T04:48:26;16.93;;;10.10;;
21905;SDS011;11117;48.644;9.006;2023-04-26T04:50:51;16.30;;;9.70;;
21905;SDS011;11117;48.644;9.006;2023-04-26T04:53:17;18.90;;;9.40;;
21905;SDS011;11117;48.644;9.006;2023-04-26T04:55:43;15.27;;;9.27;;
21905;SDS011;11117;48.644;9.006;2023-04-26T04:58:08;21.90;;;11.43;;
21905;SDS011;11117;48.644;9.006;2023-04-26T05:00:34;23.13;;;12.47;;
21905;SDS011;11117;48.644;9.006;2023-04-26T05:02:59;27.57;;;14.20;;
21905;SDS011;11117;48.644;9.006;2023-04-26T05:05:25;24.67;;;13.73;;
21905;SDS011;11117;48.644;9.006;2023-04-26T05:07:53;24.43;;;12.23;;
21905;SDS011;11117;48.644;9.006;2023-04-26T05:10:19;29.70;;;12.33;;
21905;SDS011;11117;48.644;9.006;2023-04-26T05:12:44;21.50;;;10.90;;
21905;SDS011;11117;48.644;9.006;2023-04-26T05:15:10;19.80;;;9.87;;
21905;SDS011;11117;48.644;9.006;2023-04-26T05:17:36;17.30;;;9.20;;
21905;SDS011;11117;48.644;9.006;2023-04-26T05:20:01;22.73;;;10.67;;
21905;SDS011;11117;48.644;9.006;2023-04-26T05:22:27;18.00;;;10.90;;
21905;SDS011;11117;48.644;9.006;2023-04-26T05:24:52;19.33;;;9.80;;
21905;SDS011;11117;48.644;9.006;2023-04-26T05:27:18;24.70;;;12.60;;
21905;SDS011;11117;48.644;9.006;2023-04-26T05:29:46;27.13;;;13.50;;
21905;SDS011;11117;48.644;9.006;2023-04-26T05:32:11;49.33;;;24.27;;
21905;SDS011;11117;48.644;9.006;2023-04-26T05:34:37;43.63;;;22.87;;
21905;SDS011;11117;48.644;9.006;2023-04-26T05:37:02;27.17;;;13.00;;
21905;SDS011;11117;48.644;9.006;2023-04-26T05:39:28;24.67;;;14.13;;
21905;SDS011;11117;48.644;9.006;2023-04-26T05:41:54;18.03;;;9.63;;
21905;SDS011;11117;48.644;9.006;2023-04-26T05:44:19;17.50;;;9.10;;
21905;SDS011;11117;48.644;9.006;2023-04-26T05:46:45;17.07;;;9.90;;
21905;SDS011;11117;48.644;9.006;2023-04-26T05:49:10;18.33;;;9.80;;
21905;SDS011;11117;48.644;9.006;2023-04-26T05:51:36;19.60;;;9.87;;
21905;SDS011;11117;48.644;9.006;2023-04-26T05:54:01;22.93;;;11.63;;
21905;SDS011;11117;48.644;9.006;2023-04-26T05:56:27;20.63;;;10.03;;
21905;SDS011;11117;48.644;9.006;2023-04-26T05:58:53;21.30;;;10.30;;
21905;SDS011;11117;48.644;9.006;2023-04-26T06:01:18;18.83;;;10.30;;
21905;SDS011;11117;48.644;9.006;2023-04-26T06:03:44;17.40;;;10.40;;
21905;SDS011;11117;48.644;9.006;2023-04-26T06:06:10;19.57;;;9.93;;
21905;SDS011;11117;48.644;9.006;2023-04-26T06:08:36;17.53;;;9.77;;
21905;SDS011;11117;48.644;9.006;2023-04-26T06:11:01;16.93;;;10.23;;
21905;SDS011;11117;48.644;9.006;2023-04-26T06:13:27;20.90;;;10.63;;
21905;SDS011;11117;48.644;9.006;2023-04-26T06:15:52;20.33;;;10.70;;
21905;SDS011;11117;48.644;9.006;2023-04-26T06:18:18;20.80;;;10.07;;
21905;SDS011;11117;48.644;9.006;2023-04-26T06:20:54;18.93;;;9.97;;
21905;SDS011;11117;48.644;9.006;2023-04-26T06:23:20;20.00;;;9.87;;
21905;SDS011;11117;48.644;9.006;2023-04-26T06:25:45;16.70;;;10.83;;
21905;SDS011;11117;48.644;9.006;2023-04-26T06:28:11;18.37;;;10.03;;
21905;SDS011;11117;48.644;9.006;2023-04-26T06:30:37;18.53;;;10.23;;
21905;SDS011;11117;48.644;9.006;2023-04-26T06:33:02;20.20;;;10.07;;
21905;SDS011;11117;48.644;9.006;2023-04-26T06:35:28;20.67;;;10.73;;
21905;SDS011;11117;48.644;9.006;2023-04-26T06:37:54;19.10;;;9.90;;
21905;SDS011;11117;48.644;9.006;2023-04-26T06:40:19;26.30;;;9.70;;
21905;SDS011;11117;48.644;9.006;2023-04-26T06:42:45;18.97;;;9.73;;
21905;SDS011;11117;48.644;9.006;2023-04-26T06:45:10;20.40;;;9.43;;
21905;SDS011;11117;48.644;9.006;2023-04-26T06:47:36;14.10;;;7.97;;
21905;SDS011;11117;48.644;9.006;2023-04-26T06:50:02;10.73;;;5.83;;
21905;SDS011;11117;48.644;9.006;2023-04-26T06:52:28;10.57;;;4.20;;
21905;SDS011;11117;48.644;9.006;2023-04-26T06:54:54;12.43;;;4.83;;
21905;SDS011;11117;48.644;9.006;2023-04-26T06:57:19;7.90;;;4.17;;
21905;SDS011;11117;48.644;9.006;2023-04-26T06:59:46;9.00;;;3.57;;
21905;SDS011;11117;48.644;9.006;2023-04-26T07:02:12;8.60;;;3.17;;
21905;SDS011;11117;48.644;9.006;2023-04-26T07:04:38;13.03;;;4.77;;
21905;SDS011;11117;48.644;9.006;2023-04-26T07:07:03;8.17;;;4.33;;
21905;SDS011;11117;48.644;9.006;2023-04-26T07:09:29;10.50;;;5.23;;
21905;SDS011;11117;48.644;9.006;2023-04-26T07:11:55;12.67;;;4.73;;
21905;SDS011;11117;48.644;9.006;2023-04-26T07:14:20;11.53;;;3.97;;
21905;SDS011;11117;48.644;9.006;2023-04-26T07:16:47;6.40;;;3.27;;
21905;SDS011;11117;48.644;9.006;2023-04-26T07:19:12;10.93;;;3.13;;
21905;SDS011;11117;48.644;9.006;2023-04-26T07:21:38;8.40;;;3.03;;
21905;SDS011;11117;48.644;9.006;2023-04-26T07:24:03;6.53;;;2.90;;
21905;SDS011;11117;48.644;9.006;2023-04-26T07:26:29;8.50;;;3.20;;
21905;SDS011;11117;48.644;9.006;2023-04-26T07:28:55;11.03;;;3.73;;
21905;SDS011;11117;48.644;9.006;2023-04-26T07:31:20;11.47;;;3.90;;
21905;SDS011;11117;48.644;9.006;2023-04-26T07:33:46;10.17;;;4.40;;
21905;SDS011;11117;48.644;9.006;2023-04-26T07:36:11;12.10;;;4.50;;
21905;SDS011;11117;48.644;9.006;2023-04-26T07:38:37;10.07;;;4.40;;
21905;SDS011;11117;48.644;9.006;2023-04-26T07:41:02;10.63;;;4.30;;
21905;SDS011;11117;48.644;9.006;2023-04-26T07:43:28;12.93;;;4.43;;
21905;SDS011;11117;48.644;9.006;2023-04-26T07:45:58;8.57;;;4.80;;
21905;SDS011;11117;48.644;9.006;2023-04-26T07:48:24;10.00;;;4.53;;
21905;SDS011;11117;48.644;9.006;2023-04-26T07:50:49;11.07;;;4.40;;
21905;SDS011;11117;48.644;9.006;2023-04-26T07:53:15;10.87;;;4.10;;
21905;SDS011;11117;48.644;9.006;2023-04-26T07:55:40;10.17;;;4.33;;
21905;SDS011;11117;48.644;9.006;2023-04-26T07:58:06;8.43;;;3.70;;
21905;SDS011;11117;48.644;9.006;2023-04-26T08:00:31;10.87;;;4.13;;
21905;SDS011;11117;48.644;9.006;2023-04-26T08:02:57;10.40;;;3.90;;
21905;SDS011;11117;48.644;9.006;2023-04-26T08:05:22;8.40;;;4.00;;
21905;SDS011;11117;48.644;9.006;2023-04-26T08:07:48;9.50;;;4.07;;
21905;SDS011;11117;48.644;9.006;2023-04-26T08:10:13;8.17;;;4.00;;
21905;SDS011;11117;48.644;9.006;2023-04-26T08:12:39;11.60;;;4.50;;
21905;SDS011;11117;48.644;9.006;2023-04-26T08:15:05;11.07;;;4.40;;
21905;SDS011;11117;48.644;9.006;2023-04-26T08:17:31;9.93;;;4.40;;
21905;SDS011;11117;48.644;9.006;2023-04-26T08:19:57;12.23;;;4.20;;
21905;SDS011;11117;48.644;9.006;2023-04-26T08:22:23;11.47;;;4.77;;
21905;SDS011;11117;48.644;9.006;2023-04-26T08:24:49;9.33;;;4.30;;
21905;SDS011;11117;48.644;9.006;2023-04-26T08:27:16;9.03;;;4.17;;
21905;SDS011;11117;48.644;9.006;2023-04-26T08:29:46;12.13;;;4.50;;
21905;SDS011;11117;48.644;9.006;2023-04-26T08:32:11;9.47;;;4.23;;
21905;SDS011;11117;48.644;9.006;2023-04-26T08:34:37;10.57;;;4.27;;
21905;SDS011;11117;48.644;9.006;2023-04-26T08:37:03;9.10;;;3.97;;
21905;SDS011;11117;48.644;9.006;2023-04-26T08:39:31;7.93;;;4.00;;
21905;SDS011;11117;48.644;9.006;2023-04-26T08:42:00;10.17;;;4.07;;
21905;SDS011;11117;48.644;9.006;2023-04-26T08:44:29;11.60;;;4.27;;
21905;SDS011;11117;48.644;9.006;2023-04-26T08:49:33;14.03;;;4.10;;
21905;SDS011;11117;48.644;9.006;2023-04-26T08:52:02;9.60;;;3.60;;
21905;SDS011;11117;48.644;9.006;2023-04-26T08:54:28;8.07;;;4.10;;
21905;SDS011;11117;48.644;9.006;2023-04-26T08:56:57;13.40;;;4.43;;
21905;SDS011;11117;48.644;9.006;2023-04-26T08:59:23;8.63;;;3.73;;
21905;SDS011;11117;48.644;9.006;2023-04-26T09:01:49;9.70;;;4.07;;
21905;SDS011;11117;48.644;9.006;2023-04-26T09:04:16;11.17;;;4.30;;
21905;SDS011;11117;48.644;9.006;2023-04-26T09:06:42;8.57;;;3.90;;
21905;SDS011;11117;48.644;9.006;2023-04-26T09:09:08;9.30;;;4.10;;
21905;SDS011;11117;48.644;9.006;2023-04-26T09:11:54;8.37;;;3.87;;
21905;SDS011;11117;48.644;9.006;2023-04-26T09:14:20;9.47;;;3.73;;
21905;SDS011;11117;48.644;9.006;2023-04-26T09:16:46;10.80;;;3.90;;
21905;SDS011;11117;48.644;9.006;2023-04-26T09:19:11;12.55;;;3.88;;
21905;SDS011;11117;48.644;9.006;2023-04-26T09:21:44;12.70;;;4.05;;
21905;SDS011;11117;48.644;9.006;2023-04-26T09:24:11;7.20;;;3.57;;
21905;SDS011;11117;48.644;9.006;2023-04-26T09:26:37;7.55;;;3.50;;
21905;SDS011;11117;48.644;9.006;2023-04-26T09:29:10;8.60;;;3.58;;
21905;SDS011;11117;48.644;9.006;2023-04-26T09:31:38;14.02;;;3.70;;
21905;SDS011;11117;48.644;9.006;2023-04-26T09:34:05;8.05;;;3.50;;
21905;SDS011;11117;48.644;9.006;2023-04-26T09:36:30;6.40;;;4.10;;
21905;SDS011;11117;48.644;9.006;2023-04-26T09:38:56;11.18;;;4.38;;
21905;SDS011;11117;48.644;9.006;2023-04-26T09:41:22;9.00;;;4.18;;
21905;SDS011;11117;48.644;9.006;2023-04-26T09:43:49;12.45;;;4.63;;
21905;SDS011;11117;48.644;9.006;2023-04-26T09:46:22;8.40;;;3.88;;
21905;SDS011;11117;48.644;9.006;2023-04-26T09:48:59;10.68;;;4.60;;
21905;SDS011;11117;48.644;9.006;2023-04-26T09:51:25;7.38;;;3.55;;
21905;SDS011;11117;48.644;9.006;2023-04-26T09:53:50;8.63;;;4.10;;
21905;SDS011;11117;48.644;9.006;2023-04-26T09:56:19;8.20;;;3.47;;
21905;SDS011;11117;48.644;9.006;2023-04-26T10:01:10;8.40;;;3.90;;
21905;SDS011;11117;48.644;9.006;2023-04-26T10:03:38;8.70;;;3.60;;
21905;SDS011;11117;48.644;9.006;2023-04-26T10:06:05;6.35;;;3.25;;
21905;SDS011;11117;48.644;9.006;2023-04-26T10:08:31;6.80;;;2.90;;
21905;SDS011;11117;48.644;9.006;2023-04-26T10:10:56;6.63;;;3.10;;
21905;SDS011;11117;48.644;9.006;2023-04-26T10:13:22;8.27;;;4.35;;
21905;SDS011;11117;48.644;9.006;2023-04-26T10:15:48;6.40;;;3.42;;
21905;SDS011;11117;48.644;9.006;2023-04-26T10:18:14;8.85;;;3.80;;
21905;SDS011;11117;48.644;9.006;2023-04-26T10:20:39;7.13;;;3.63;;
21905;SDS011;11117;48.644;9.006;2023-04-26T10:23:12;6.93;;;3.20;;
21905;SDS011;11117;48.644;9.006;2023-04-26T10:25:45;7.50;;;3.38;;
21905;SDS011;11117;48.644;9.006;2023-04-26T10:28:10;6.68;;;3.50;;
21905;SDS011;11117;48.644;9.006;2023-04-26T10:30:52;11.55;;;3.50;;
21905;SDS011;11117;48.644;9.006;2023-04-26T10:33:22;7.00;;;4.00;;
21905;SDS011;11117;48.644;9.006;2023-04-26T10:41:48;7.75;;;3.00;;
21905;SDS011;11117;48.644;9.006;2023-04-26T10:47:03;9.77;;;3.60;;
21905;SDS011;11117;48.644;9.006;2023-04-26T10:49:42;6.68;;;3.65;;
21905;SDS011;11117;48.644;9.006;2023-04-26T10:52:12;6.35;;;3.17;;
21905;SDS011;11117;48.644;9.006;2023-04-26T10:54:54;6.13;;;3.30;;
21905;SDS011;11117;48.644;9.006;2023-04-26T10:57:21;11.30;;;2.95;;
21905;SDS011;11117;48.644;9.006;2023-04-26T11:05:36;6.85;;;2.83;;
21905;SDS011;11117;48.644;9.006;2023-04-26T11:10:29;6.65;;;2.58;;
21905;SDS011;11117;48.644;9.006;2023-04-26T11:13:02;4.35;;;2.25;;
21905;SDS011;11117;48.644;9.006;2023-04-26T11:15:29;3.78;;;2.25;;
21905;SDS011;11117;48.644;9.006;2023-04-26T11:17:55;4.85;;;2.33;;
21905;SDS011;11117;48.644;9.006;2023-04-26T11:20:21;4.10;;;2.47;;
21905;SDS011;11117;48.644;9.006;2023-04-26T11:22:47;5.68;;;2.58;;
21905;SDS011;11117;48.644;9.006;2023-04-26T11:25:12;7.05;;;2.30;;
21905;SDS011;11117;48.644;9.006;2023-04-26T11:27:38;5.00;;;2.60;;
21905;SDS011;11117;48.644;9.006;2023-04-26T11:30:06;6.30;;;2.70;;
21905;SDS011;11117;48.644;9.006;2023-04-26T11:32:33;4.70;;;2.45;;
21905;SDS011;11117;48.644;9.006;2023-04-26T11:34:59;4.57;;;2.15;;
21905;SDS011;11117;48.644;9.006;2023-04-26T11:37:24;4.30;;;2.20;;
21905;SDS011;11117;48.644;9.006;2023-04-26T11:39:50;5.00;;;2.40;;
21905;SDS011;11117;48.644;9.006;2023-04-26T11:42:17;6.15;;;2.20;;
21905;SDS011;11117;48.644;9.006;2023-04-26T11:44:49;3.90;;;2.22;;
21905;SDS011;11117;48.644;9.006;2023-04-26T11:47:15;7.43;;;2.50;;
21905;SDS011;11117;48.644;9.006;2023-04-26T11:49:43;6.53;;;2.50;;
21905;SDS011;11117;48.644;9.006;2023-04-26T11:52:10;12.27;;;2.67;;
21905;SDS011;11117;48.644;9.006;2023-04-26T11:54:35;6.53;;;2.40;;
21905;SDS011;11117;48.644;9.006;2023-04-26T11:57:11;4.47;;;2.45;;
21905;SDS011;11117;48.644;9.006;2023-04-26T11:59:38;5.55;;;2.55;;
21905;SDS011;11117;48.644;9.006;2023-04-26T12:02:06;5.85;;;2.40;;
21905;SDS011;11117;48.644;9.006;2023-04-26T12:04:32;6.13;;;2.33;;
21905;SDS011;11117;48.644;9.006;2023-04-26T12:06:58;7.40;;;3.05;;
21905;SDS011;11117;48.644;9.006;2023-04-26T12:09:27;6.88;;;2.50;;
21905;SDS011;11117;48.644;9.006;2023-04-26T12:11:57;4.85;;;2.33;;
21905;SDS011;11117;48.644;9.006;2023-04-26T12:14:33;4.97;;;2.50;;
21905;SDS011;11117;48.644;9.006;2023-04-26T12:17:00;3.83;;;2.47;;
21905;SDS011;11117;48.644;9.006;2023-04-26T12:19:26;6.47;;;2.72;;
21905;SDS011;11117;48.644;9.006;2023-04-26T12:21:52;5.75;;;1.92;;
21905;SDS011;11117;48.644;9.006;2023-04-26T12:24:21;6.78;;;2.50;;
21905;SDS011;11117;48.644;9.006;2023-04-26T12:26:46;2.72;;;2.20;;
21905;SDS011;11117;48.644;9.006;2023-04-26T12:29:12;7.43;;;2.20;;
21905;SDS011;11117;48.644;9.006;2023-04-26T12:31:37;5.78;;;2.17;;
21905;SDS011;11117;48.644;9.006;2023-04-26T12:34:03;6.97;;;2.13;;
21905;SDS011;11117;48.644;9.006;2023-04-26T12:36:29;3.50;;;2.45;;
21905;SDS011;11117;48.644;9.006;2023-04-26T12:38:55;3.53;;;2.10;;
21905;SDS011;11117;48.644;9.006;2023-04-26T12:41:20;3.60;;;2.10;;
21905;SDS011;11117;48.644;9.006;2023-04-26T12:43:46;4.57;;;1.83;;
21905;SDS011;11117;48.644;9.006;2023-04-26T12:46:11;5.28;;;2.25;;
21905;SDS011;11117;48.644;9.006;2023-04-26T12:48:37;5.53;;;2.53;;
21905;SDS011;11117;48.644;9.006;2023-04-26T12:51:02;7.53;;;2.20;;
21905;SDS011;11117;48.644;9.006;2023-04-26T12:53:28;5.63;;;2.70;;
21905;SDS011;11117;48.644;9.006;2023-04-26T12:55:55;4.43;;;2.42;;
21905;SDS011;11117;48.644;9.006;2023-04-26T12:58:20;4.15;;;2.20;;
21905;SDS011;11117;48.644;9.006;2023-04-26T13:00:46;5.43;;;2.40;;
21905;SDS011;11117;48.644;9.006;2023-04-26T13:03:12;5.57;;;2.33;;
21905;SDS011;11117;48.644;9.006;2023-04-26T13:05:37;5.00;;;2.40;;
21905;SDS011;11117;48.644;9.006;2023-04-26T13:08:03;4.65;;;2.00;;
21905;SDS011;11117;48.644;9.006;2023-04-26T13:10:29;5.70;;;2.80;;
21905;SDS011;11117;48.644;9.006;2023-04-26T13:12:54;5.55;;;2.75;;
21905;SDS011;11117;48.644;9.006;2023-04-26T13:15:20;3.42;;;2.22;;
21905;SDS011;11117;48.644;9.006;2023-04-26T13:17:45;5.15;;;2.15;;
21905;SDS011;11117;48.644;9.006;2023-04-26T13:20:11;6.68;;;2.47;;
21905;SDS011;11117;48.644;9.006;2023-04-26T13:22:37;5.50;;;2.22;;
21905;SDS011;11117;48.644;9.006;2023-04-26T13:25:02;5.93;;;2.40;;
21905;SDS011;11117;48.644;9.006;2023-04-26T13:27:28;3.60;;;2.40;;
21905;SDS011;11117;48.644;9.006;2023-04-26T13:29:54;4.90;;;2.75;;
21905;SDS011;11117;48.644;9.006;2023-04-26T13:32:19;5.95;;;2.60;;
21905;SDS011;11117;48.644;9.006;2023-04-26T13:34:46;6.40;;;2.25;;
21905;SDS011;11117;48.644;9.006;2023-04-26T13:37:11;5.45;;;2.58;;
21905;SDS011;11117;48.644;9.006;2023-04-26T13:39:37;5.68;;;2.40;;
21905;SDS011;11117;48.644;9.006;2023-04-26T13:42:02;7.07;;;2.58;;
21905;SDS011;11117;48.644;9.006;2023-04-26T13:44:28;5.85;;;2.67;;
21905;SDS011;11117;48.644;9.006;2023-04-26T13:46:54;6.78;;;2.58;;
21905;SDS011;11117;48.644;9.006;2023-04-26T13:49:20;4.63;;;2.75;;
21905;SDS011;11117;48.644;9.006;2023-04-26T13:51:45;6.18;;;2.70;;
21905;SDS011;11117;48.644;9.006;2023-04-26T13:54:11;5.40;;;2.47;;
21905;SDS011;11117;48.644;9.006;2023-04-26T13:56:36;4.70;;;2.40;;
21905;SDS011;11117;48.644;9.006;2023-04-26T13:59:02;3.53;;;2.30;;
21905;SDS011;11117;48.644;9.006;2023-04-26T14:01:28;6.43;;;2.70;;
21905;SDS011;11117;48.644;9.006;2023-04-26T14:03:54;8.20;;;2.50;;
21905;SDS011;11117;48.644;9.006;2023-04-26T14:06:19;4.43;;;2.20;;
21905;SDS011;11117;48.644;9.006;2023-04-26T14:08:45;5.45;;;2.58;;
21905;SDS011;11117;48.644;9.006;2023-04-26T14:11:10;3.78;;;2.38;;
21905;SDS011;11117;48.644;9.006;2023-04-26T14:13:36;5.35;;;2.33;;
21905;SDS011;11117;48.644;9.006;2023-04-26T14:16:01;7.47;;;2.20;;
21905;SDS011;11117;48.644;9.006;2023-04-26T14:18:27;4.32;;;2.35;;
21905;SDS011;11117;48.644;9.006;2023-04-26T14:20:53;4.80;;;2.53;;
21905;SDS011;11117;48.644;9.006;2023-04-26T14:23:18;4.78;;;2.17;;
21905;SDS011;11117;48.644;9.006;2023-04-26T14:25:44;6.30;;;2.92;;
21905;SDS011;11117;48.644;9.006;2023-04-26T14:28:09;6.22;;;2.50;;
21905;SDS011;11117;48.644;9.006;2023-04-26T14:30:35;4.72;;;2.28;;
21905;SDS011;11117;48.644;9.006;2023-04-26T14:33:00;5.35;;;2.30;;
21905;SDS011;11117;48.644;9.006;2023-04-26T14:35:26;5.47;;;2.38;;
21905;SDS011;11117;48.644;9.006;2023-04-26T14:37:51;7.68;;;2.55;;
21905;SDS011;11117;48.644;9.006;2023-04-26T14:40:17;7.47;;;2.50;;
21905;SDS011;11117;48.644;9.006;2023-04-26T14:42:43;8.80;;;2.63;;
21905;SDS011;11117;48.644;9.006;2023-04-26T14:45:08;7.28;;;2.10;;
21905;SDS011;11117;48.644;9.006;2023-04-26T14:47:34;6.35;;;2.30;;
21905;SDS011;11117;48.644;9.006;2023-04-26T14:50:00;5.82;;;2.00;;
21905;SDS011;11117;48.644;9.006;2023-04-26T14:52:26;3.20;;;1.80;;
21905;SDS011;11117;48.644;9.006;2023-04-26T14:54:51;4.57;;;2.17;;